createdAt,value
2023-05-09T00:00:01.572Z,12.55
2023-05-09T00:00:53.106Z,13.07
2023-05-09T00:01:45.401Z,12.38
2023-05-09T00:02:38.614Z,12.07
2023-05-09T00:03:30.207Z,12.46
2023-05-09T00:04:22.157Z,12.51
2023-05-09T00:05:15.272Z,12.83
2023-05-09T00:06:07.465Z,12.55
2023-05-09T00:07:01.318Z,12.98
2023-05-09T00:07:52.832Z,13.01
2023-05-09T00:08:44.299Z,13.08
2023-05-09T00:09:35.913Z,12.17
2023-05-09T00:10:27.614Z,11.78
2023-05-09T00:11:19.055Z,12.00
2023-05-09T00:12:12.181Z,12.44
2023-05-09T00:13:03.949Z,12.26
2023-05-09T00:13:57.764Z,12.75
2023-05-09T00:14:51.720Z,12.37
2023-05-09T00:15:44.283Z,12.59
2023-05-09T00:16:40.314Z,12.94
2023-05-09T00:17:36.325Z,12.79
2023-05-09T00:18:28.461Z,12.92
2023-05-09T00:19:20.140Z,13.44
2023-05-09T00:20:12.812Z,12.56
2023-05-09T00:21:04.504Z,13.26
2023-05-09T00:21:56.361Z,12.72
2023-05-09T00:22:50.149Z,12.63
2023-05-09T00:23:41.575Z,12.35
2023-05-09T00:24:33.128Z,13.62
2023-05-09T00:25:24.717Z,11.92
2023-05-09T00:26:16.408Z,12.73
2023-05-09T00:27:09.820Z,13.85
2023-05-09T00:28:01.322Z,13.10
2023-05-09T00:28:53.153Z,12.35
2023-05-09T00:29:44.977Z,12.56
2023-05-09T00:30:36.478Z,12.71
2023-05-09T00:31:27.956Z,12.81
2023-05-09T00:32:19.386Z,12.87
2023-05-09T00:33:10.853Z,13.61
2023-05-09T00:34:03.529Z,13.08
2023-05-09T00:34:56.096Z,13.77
2023-05-09T00:35:47.733Z,13.12
2023-05-09T00:36:39.544Z,13.47
2023-05-09T00:37:31.476Z,13.05
2023-05-09T00:38:23.610Z,13.84
2023-05-09T00:39:17.289Z,13.94
2023-05-09T00:40:09.419Z,13.93
2023-05-09T00:41:00.941Z,13.67
2023-05-09T00:41:53.729Z,14.17
2023-05-09T00:42:45.801Z,14.14
2023-05-09T00:43:37.468Z,14.14
2023-05-09T00:44:29.184Z,14.05
2023-05-09T00:45:21.918Z,13.49
2023-05-09T00:46:13.631Z,13.34
2023-05-09T00:47:07.597Z,13.58
2023-05-09T00:48:01.532Z,13.74
2023-05-09T00:48:53.540Z,13.94
2023-05-09T00:49:45.011Z,14.57
2023-05-09T00:50:36.735Z,14.72
2023-05-09T00:51:29.246Z,14.50
2023-05-09T00:52:23.510Z,14.59
2023-05-09T00:53:14.927Z,14.17
2023-05-09T00:54:09.210Z,14.41
2023-05-09T00:55:02.596Z,15.43
2023-05-09T00:55:59.907Z,14.29
2023-05-09T00:56:51.852Z,14.49
2023-05-09T00:57:45.277Z,14.75
2023-05-09T00:58:37.665Z,14.50
2023-05-09T00:59:29.301Z,14.12
2023-05-09T01:00:21.317Z,14.85
2023-05-09T01:01:14.871Z,15.31
2023-05-09T01:02:06.937Z,14.78
2023-05-09T01:02:58.933Z,15.71
2023-05-09T01:03:51.474Z,14.54
2023-05-09T01:04:45.465Z,14.82
2023-05-09T01:05:56.693Z,15.54
2023-05-09T01:07:19.605Z,14.90
2023-05-09T01:08:24.657Z,14.82
2023-05-09T01:09:29.343Z,14.30
2023-05-09T01:10:31.546Z,14.58
2023-05-09T01:11:34.206Z,13.98
2023-05-09T01:12:57.944Z,13.88
2023-05-09T01:14:08.303Z,14.12
2023-05-09T01:15:16.183Z,14.67
2023-05-09T01:16:17.621Z,15.57
2023-05-09T01:17:36.661Z,15.13
2023-05-09T01:18:47.100Z,15.26
2023-05-09T01:19:56.785Z,15.59
2023-05-09T01:21:11.625Z,14.79
2023-05-09T01:22:08.842Z,15.36
2023-05-09T01:23:17.768Z,15.36
2023-05-09T01:24:48.193Z,15.24
2023-05-09T01:26:06.089Z,15.48
2023-05-09T01:27:15.993Z,14.88
2023-05-09T01:28:35.027Z,14.96
2023-05-09T01:29:46.097Z,15.33
2023-05-09T01:30:38.978Z,14.93
2023-05-09T01:31:34.647Z,16.03
2023-05-09T01:32:28.928Z,16.13
2023-05-09T01:33:26.496Z,16.27
2023-05-09T01:34:18.629Z,16.38
2023-05-09T01:35:14.324Z,16.99
2023-05-09T01:36:12.606Z,15.65
2023-05-09T01:37:06.969Z,15.49
2023-05-09T01:38:01.833Z,15.57
2023-05-09T01:38:54.930Z,15.06
2023-05-09T01:39:51.518Z,15.34
2023-05-09T01:40:52.870Z,15.61
2023-05-09T01:41:46.064Z,16.77
2023-05-09T01:43:00.324Z,16.47
2023-05-09T01:43:55.073Z,16.51
2023-05-09T01:44:48.782Z,15.35
2023-05-09T01:45:42.382Z,15.38
2023-05-09T01:46:36.370Z,16.03
2023-05-09T01:47:31.236Z,16.10
2023-05-09T01:48:28.817Z,15.18
2023-05-09T01:49:22.136Z,15.38
2023-05-09T01:50:16.895Z,15.08
2023-05-09T01:51:10.894Z,15.62
2023-05-09T01:52:10.006Z,15.81
2023-05-09T01:53:02.327Z,16.52
2023-05-09T01:53:58.040Z,15.93
2023-05-09T01:54:51.817Z,15.42
2023-05-09T01:55:44.366Z,14.94
2023-05-09T01:56:38.893Z,16.23
2023-05-09T01:57:31.317Z,18.05
2023-05-09T01:58:25.827Z,16.90
2023-05-09T01:59:20.399Z,16.73
2023-05-09T02:00:15.042Z,17.09
2023-05-09T02:01:10.649Z,16.81
2023-05-09T02:02:04.466Z,15.60
2023-05-09T02:02:59.430Z,16.06
2023-05-09T02:03:52.756Z,14.62
2023-05-09T02:04:46.952Z,16.36
2023-05-09T02:05:40.197Z,15.66
2023-05-09T02:06:33.082Z,14.46
2023-05-09T02:07:25.054Z,14.48
2023-05-09T02:08:23.351Z,14.91
2023-05-09T02:09:15.549Z,17.12
2023-05-09T02:10:09.541Z,17.10
2023-05-09T02:11:02.284Z,17.27
2023-05-09T02:11:54.406Z,17.14
2023-05-09T02:12:46.076Z,16.85
2023-05-09T02:13:39.933Z,15.40
2023-05-09T02:14:32.193Z,15.70
2023-05-09T02:15:24.834Z,15.78
2023-05-09T02:16:16.827Z,14.06
2023-05-09T02:17:10.588Z,14.04
2023-05-09T02:18:02.140Z,13.90
2023-05-09T02:18:53.951Z,14.60
2023-05-09T02:19:47.322Z,13.79
2023-05-09T02:20:41.167Z,14.23
2023-05-09T02:21:33.105Z,14.72
2023-05-09T02:22:24.901Z,15.01
2023-05-09T02:23:16.495Z,15.62
2023-05-09T02:24:08.173Z,14.88
2023-05-09T02:25:00.706Z,15.72
2023-05-09T02:25:55.375Z,15.51
2023-05-09T02:26:47.693Z,15.75
2023-05-09T02:27:40.979Z,16.55
2023-05-09T02:28:33.582Z,17.47
2023-05-09T02:29:40.681Z,16.46
2023-05-09T02:30:38.815Z,16.91
2023-05-09T02:31:31.615Z,16.51
2023-05-09T02:32:29.153Z,15.96
2023-05-09T02:33:20.896Z,15.94
2023-05-09T02:34:14.071Z,15.72
2023-05-09T02:35:10.360Z,15.35
2023-05-09T02:36:02.712Z,15.69
2023-05-09T02:36:54.397Z,16.13
2023-05-09T02:37:50.161Z,15.48
2023-05-09T02:38:41.820Z,15.16
2023-05-09T02:39:33.800Z,15.23
2023-05-09T02:40:29.473Z,14.55
2023-05-09T02:41:27.406Z,15.16
2023-05-09T02:42:25.409Z,16.26
2023-05-09T02:43:17.136Z,15.03
2023-05-09T02:44:11.098Z,14.22
2023-05-09T02:45:02.607Z,15.17
2023-05-09T02:45:54.392Z,14.81
2023-05-09T02:46:45.890Z,15.08
2023-05-09T02:47:38.131Z,15.31
2023-05-09T02:48:29.831Z,14.71
2023-05-09T02:49:31.429Z,15.03
2023-05-09T02:50:25.261Z,15.04
2023-05-09T02:51:16.906Z,15.36
2023-05-09T02:52:08.825Z,16.28
2023-05-09T02:53:00.368Z,16.00
2023-05-09T02:53:51.806Z,15.73
2023-05-09T02:54:43.578Z,15.21
2023-05-09T02:55:35.172Z,15.01
2023-05-09T02:56:26.723Z,14.83
2023-05-09T02:57:18.187Z,15.47
2023-05-09T02:58:14.281Z,15.48
2023-05-09T02:59:07.266Z,14.58
2023-05-09T03:00:01.404Z,14.09
2023-05-09T03:00:54.001Z,14.91
2023-05-09T03:01:46.520Z,15.69
2023-05-09T03:02:38.728Z,14.40
2023-05-09T03:03:34.595Z,15.31
2023-05-09T03:04:32.020Z,15.39
2023-05-09T03:05:25.263Z,15.95
2023-05-09T03:06:16.771Z,16.22
2023-05-09T03:07:08.344Z,15.07
2023-05-09T03:07:59.761Z,16.44
2023-05-09T03:08:51.541Z,17.21
2023-05-09T03:09:43.133Z,16.82
2023-05-09T03:10:35.637Z,15.99
2023-05-09T03:11:27.752Z,15.63
2023-05-09T03:12:19.279Z,16.83
2023-05-09T03:13:10.780Z,15.94
2023-05-09T03:14:02.999Z,15.67
2023-05-09T03:14:54.414Z,15.12
2023-05-09T03:15:45.931Z,15.61
2023-05-09T03:16:38.044Z,15.46
2023-05-09T03:17:32.866Z,15.56
2023-05-09T03:18:24.579Z,15.40
2023-05-09T03:19:16.572Z,15.32
2023-05-09T03:20:08.528Z,15.06
2023-05-09T03:21:00.370Z,15.53
2023-05-09T03:21:52.250Z,16.08
2023-05-09T03:22:48.612Z,15.93
2023-05-09T03:23:40.811Z,16.33
2023-05-09T03:24:32.582Z,15.43
2023-05-09T03:25:27.362Z,16.23
2023-05-09T03:26:24.010Z,16.44
2023-05-09T03:27:15.718Z,14.90
2023-05-09T03:28:07.137Z,15.66
2023-05-09T03:28:58.916Z,15.84
2023-05-09T03:29:50.456Z,15.81
2023-05-09T03:30:43.519Z,16.24
2023-05-09T03:31:38.194Z,15.41
2023-05-09T03:32:29.734Z,15.12
2023-05-09T03:33:21.273Z,16.00
2023-05-09T03:34:15.207Z,15.41
2023-05-09T03:35:11.012Z,15.41
2023-05-09T03:36:02.992Z,15.77
2023-05-09T03:36:54.418Z,16.29
2023-05-09T03:37:46.041Z,15.64
2023-05-09T03:38:38.704Z,15.41
2023-05-09T03:39:30.251Z,15.45
2023-05-09T03:40:24.486Z,15.36
2023-05-09T03:41:27.960Z,15.30
2023-05-09T03:42:19.545Z,15.50
2023-05-09T03:43:14.202Z,15.91
2023-05-09T03:44:06.309Z,16.46
2023-05-09T03:44:57.992Z,15.71
2023-05-09T03:45:49.438Z,15.33
2023-05-09T03:46:43.437Z,15.51
2023-05-09T03:47:35.322Z,15.08
2023-05-09T03:48:27.526Z,15.42
2023-05-09T03:49:21.709Z,14.85
2023-05-09T03:50:16.843Z,15.22
2023-05-09T03:51:09.367Z,15.22
2023-05-09T03:52:04.045Z,15.16
2023-05-09T03:52:56.858Z,14.27
2023-05-09T03:53:49.565Z,15.64
2023-05-09T03:54:41.501Z,16.21
2023-05-09T03:55:33.336Z,15.77
2023-05-09T03:56:26.587Z,14.86
2023-05-09T03:57:18.512Z,14.76
2023-05-09T03:58:13.084Z,15.50
2023-05-09T03:59:07.400Z,15.00
2023-05-09T03:59:59.190Z,16.10
2023-05-09T04:00:50.736Z,16.55
2023-05-09T04:01:47.609Z,15.61
2023-05-09T04:02:39.366Z,15.49
2023-05-09T04:03:31.938Z,15.92
2023-05-09T04:04:26.041Z,15.75
2023-05-09T04:05:18.150Z,14.91
2023-05-09T04:06:10.255Z,15.08
2023-05-09T04:07:06.538Z,16.35
2023-05-09T04:07:58.223Z,16.01
2023-05-09T04:08:49.764Z,14.88
2023-05-09T04:09:42.715Z,15.25
2023-05-09T04:10:36.606Z,15.08
2023-05-09T04:11:29.056Z,15.35
2023-05-09T04:12:23.643Z,15.07
2023-05-09T04:13:16.478Z,15.45
2023-05-09T04:14:10.332Z,15.28
2023-05-09T04:15:04.440Z,15.24
2023-05-09T04:15:56.179Z,15.39
2023-05-09T04:16:48.051Z,15.06
2023-05-09T04:17:41.376Z,14.32
2023-05-09T04:18:32.911Z,13.86
2023-05-09T04:19:24.814Z,15.49
2023-05-09T04:20:16.647Z,15.77
2023-05-09T04:21:09.396Z,16.79
2023-05-09T04:22:00.919Z,15.94
2023-05-09T04:22:52.289Z,16.01
2023-05-09T04:23:44.990Z,16.33
2023-05-09T04:24:37.392Z,16.00
2023-05-09T04:25:29.463Z,15.09
2023-05-09T04:26:21.762Z,14.88
2023-05-09T04:27:16.993Z,14.79
2023-05-09T04:28:08.661Z,15.14
2023-05-09T04:29:00.947Z,14.63
2023-05-09T04:29:53.731Z,14.63
2023-05-09T04:30:45.742Z,14.25
2023-05-09T04:31:37.640Z,14.29
2023-05-09T04:32:31.256Z,15.27
2023-05-09T04:33:24.449Z,15.08
2023-05-09T04:34:16.836Z,15.97
2023-05-09T04:35:10.291Z,15.27
2023-05-09T04:36:08.372Z,15.43
2023-05-09T04:37:00.209Z,15.06
2023-05-09T04:37:53.437Z,14.97
2023-05-09T04:38:45.124Z,14.79
2023-05-09T04:39:43.290Z,15.35
2023-05-09T04:40:41.906Z,15.11
2023-05-09T04:41:39.188Z,14.45
2023-05-09T04:42:33.650Z,15.52
2023-05-09T04:43:27.859Z,14.95
2023-05-09T04:44:21.613Z,14.99
2023-05-09T04:45:13.676Z,14.64
2023-05-09T04:46:08.206Z,15.11
2023-05-09T04:47:00.527Z,15.45
2023-05-09T04:47:52.777Z,15.20
2023-05-09T04:48:44.513Z,15.42
2023-05-09T04:49:35.944Z,15.57
2023-05-09T04:50:27.398Z,14.95
2023-05-09T04:51:19.009Z,14.88
2023-05-09T04:52:10.476Z,15.67
2023-05-09T04:53:01.917Z,15.17
2023-05-09T04:53:55.553Z,14.87
2023-05-09T04:54:52.347Z,14.71
2023-05-09T04:55:46.488Z,14.71
2023-05-09T04:56:40.449Z,16.35
2023-05-09T04:57:32.084Z,15.21
2023-05-09T04:58:26.451Z,15.48
2023-05-09T04:59:18.557Z,15.67
2023-05-09T05:00:16.804Z,15.92
2023-05-09T05:01:10.476Z,15.85
2023-05-09T05:02:02.897Z,15.68
2023-05-09T05:02:56.773Z,16.12
2023-05-09T05:03:50.813Z,15.93
2023-05-09T05:04:42.345Z,16.74
2023-05-09T05:05:40.056Z,15.47
2023-05-09T05:06:34.822Z,15.71
2023-05-09T05:07:26.668Z,15.41
2023-05-09T05:08:18.610Z,15.54
2023-05-09T05:09:11.880Z,15.79
2023-05-09T05:10:03.438Z,15.27
2023-05-09T05:10:55.153Z,16.94
2023-05-09T05:11:58.459Z,15.72
2023-05-09T05:12:52.701Z,16.33
2023-05-09T05:13:46.465Z,15.79
2023-05-09T05:14:37.886Z,15.97
2023-05-09T05:15:31.713Z,16.37
2023-05-09T05:16:23.983Z,15.97
2023-05-09T05:17:17.298Z,16.43
2023-05-09T05:18:12.038Z,16.08
2023-05-09T05:19:03.631Z,15.32
2023-05-09T05:20:01.433Z,15.57
2023-05-09T05:20:58.624Z,17.52
2023-05-09T05:21:50.515Z,15.95
2023-05-09T05:22:42.048Z,15.96
2023-05-09T05:23:36.939Z,15.77
2023-05-09T05:24:29.578Z,16.11
2023-05-09T05:25:22.372Z,16.21
2023-05-09T05:26:18.577Z,15.62
2023-05-09T05:27:11.627Z,15.45
2023-05-09T05:28:03.291Z,16.66
2023-05-09T05:28:56.425Z,15.58
2023-05-09T05:29:50.338Z,16.41
2023-05-09T05:30:42.090Z,16.27
2023-05-09T05:31:33.632Z,14.80
2023-05-09T05:32:25.198Z,15.71
2023-05-09T05:33:16.728Z,15.59
2023-05-09T05:34:08.584Z,16.00
2023-05-09T05:35:02.565Z,15.69
2023-05-09T05:35:56.794Z,14.73
2023-05-09T05:36:48.495Z,14.56
2023-05-09T05:37:41.447Z,14.83
2023-05-09T05:38:33.268Z,15.55
2023-05-09T05:39:27.199Z,16.23
2023-05-09T05:40:19.116Z,15.43
2023-05-09T05:41:15.512Z,15.97
2023-05-09T05:42:07.304Z,14.81
2023-05-09T05:42:59.191Z,15.22
2023-05-09T05:43:54.093Z,15.05
2023-05-09T05:44:46.107Z,14.95
2023-05-09T05:45:38.118Z,15.98
2023-05-09T05:46:32.165Z,16.07
2023-05-09T05:47:24.556Z,15.71
2023-05-09T05:48:19.347Z,16.19
2023-05-09T05:49:13.333Z,14.54
2023-05-09T05:50:11.771Z,15.02
2023-05-09T05:51:03.741Z,15.41
2023-05-09T05:51:56.885Z,15.61
2023-05-09T05:52:49.180Z,15.74
2023-05-09T05:53:42.641Z,14.38
2023-05-09T05:54:34.761Z,14.89
2023-05-09T05:55:26.259Z,14.77
2023-05-09T05:56:17.820Z,16.67
2023-05-09T05:57:09.304Z,16.50
2023-05-09T05:58:01.263Z,16.91
2023-05-09T05:58:53.987Z,16.83
2023-05-09T05:59:50.270Z,15.38
2023-05-09T06:00:41.964Z,15.58
2023-05-09T06:01:33.593Z,15.60
2023-05-09T06:02:25.394Z,14.48
2023-05-09T06:03:17.440Z,14.92
2023-05-09T06:04:17.085Z,15.38
2023-05-09T06:05:09.052Z,15.28
2023-05-09T06:06:00.657Z,15.33
2023-05-09T06:06:52.385Z,14.66
2023-05-09T06:07:46.732Z,14.38
2023-05-09T06:08:38.226Z,15.38
2023-05-09T06:09:29.859Z,13.84
2023-05-09T06:10:21.527Z,14.23
2023-05-09T06:11:16.506Z,14.33
2023-05-09T06:12:12.058Z,15.82
2023-05-09T06:13:06.530Z,15.51
2023-05-09T06:13:59.292Z,14.61
2023-05-09T06:14:53.152Z,14.93
2023-05-09T06:15:44.879Z,15.28
2023-05-09T06:16:36.371Z,15.04
2023-05-09T06:17:28.036Z,14.03
2023-05-09T06:18:20.880Z,15.64
2023-05-09T06:19:12.914Z,14.37
2023-05-09T06:20:05.741Z,14.61
2023-05-09T06:20:57.153Z,14.82
2023-05-09T06:21:49.534Z,14.32
2023-05-09T06:22:40.939Z,13.85
2023-05-09T06:23:33.204Z,13.80
2023-05-09T06:24:35.236Z,14.58
2023-05-09T06:25:27.003Z,15.28
2023-05-09T06:26:18.478Z,14.68
2023-05-09T06:27:10.006Z,14.79
2023-05-09T06:28:01.386Z,14.38
2023-05-09T06:28:52.827Z,14.35
2023-05-09T06:29:44.252Z,14.77
2023-05-09T06:30:35.626Z,14.75
2023-05-09T06:31:27.351Z,13.39
2023-05-09T06:32:19.484Z,14.51
2023-05-09T06:33:13.560Z,15.03
2023-05-09T06:34:08.558Z,15.03
2023-05-09T06:35:00.274Z,14.99
2023-05-09T06:35:51.730Z,14.24
2023-05-09T06:36:43.187Z,14.88
2023-05-09T06:37:34.939Z,14.92
2023-05-09T06:38:26.530Z,15.26
2023-05-09T06:39:17.977Z,14.91
2023-05-09T06:40:12.330Z,14.49
2023-05-09T06:41:04.096Z,14.07
2023-05-09T06:42:01.024Z,15.15
2023-05-09T06:42:57.057Z,15.34
2023-05-09T06:43:49.877Z,16.44
2023-05-09T06:44:41.492Z,15.96
2023-05-09T06:45:32.988Z,15.93
2023-05-09T06:46:26.641Z,15.72
2023-05-09T06:47:18.070Z,15.96
2023-05-09T06:48:11.392Z,16.43
2023-05-09T06:49:03.179Z,14.84
2023-05-09T06:49:54.676Z,15.29
2023-05-09T06:50:46.294Z,15.24
2023-05-09T06:51:38.013Z,15.43
2023-05-09T06:52:29.408Z,15.18
2023-05-09T06:53:20.925Z,15.31
2023-05-09T06:54:12.669Z,14.04
2023-05-09T06:55:04.484Z,14.50
2023-05-09T06:56:00.163Z,15.27
2023-05-09T06:56:51.841Z,13.36
2023-05-09T06:57:43.334Z,13.94
2023-05-09T06:58:34.881Z,13.58
2023-05-09T06:59:26.969Z,13.03
2023-05-09T07:00:18.646Z,13.48
2023-05-09T07:01:10.177Z,14.50
2023-05-09T07:02:01.721Z,14.62
2023-05-09T07:02:54.508Z,14.34
2023-05-09T07:03:47.444Z,14.30
2023-05-09T07:04:38.949Z,13.60
2023-05-09T07:05:30.565Z,14.31
2023-05-09T07:06:25.389Z,14.44
2023-05-09T07:07:17.263Z,14.02
2023-05-09T07:08:08.664Z,13.28
2023-05-09T07:09:00.214Z,12.87
2023-05-09T07:10:00.715Z,13.54
2023-05-09T07:10:59.181Z,12.85
2023-05-09T07:11:50.622Z,13.80
2023-05-09T07:12:42.139Z,13.04
2023-05-09T07:13:33.965Z,13.85
2023-05-09T07:14:25.705Z,13.99
2023-05-09T07:15:28.720Z,13.01
2023-05-09T07:16:29.669Z,13.10
2023-05-09T07:17:24.022Z,12.76
2023-05-09T07:18:15.784Z,13.19
2023-05-09T07:19:07.494Z,12.52
2023-05-09T07:20:03.819Z,12.96
2023-05-09T07:20:55.715Z,13.76
2023-05-09T07:21:47.137Z,13.98
2023-05-09T07:22:38.714Z,14.45
2023-05-09T07:23:32.422Z,14.32
2023-05-09T07:24:23.810Z,14.53
2023-05-09T07:25:17.730Z,13.58
2023-05-09T07:26:11.638Z,12.47
2023-05-09T07:27:03.865Z,12.15
2023-05-09T07:27:55.414Z,12.25
2023-05-09T07:28:46.879Z,13.12
2023-05-09T07:29:40.678Z,14.12
2023-05-09T07:30:32.174Z,14.27
2023-05-09T07:31:23.683Z,13.88
2023-05-09T07:32:15.553Z,13.95
2023-05-09T07:33:09.491Z,13.75
2023-05-09T07:34:01.062Z,12.60
2023-05-09T07:34:52.637Z,12.58
2023-05-09T07:35:44.258Z,12.85
2023-05-09T07:37:34.918Z,12.67
2023-05-09T07:38:26.682Z,11.55
2023-05-09T07:39:18.168Z,10.88
2023-05-09T07:40:13.279Z,10.91
2023-05-09T07:41:04.961Z,11.18
2023-05-09T07:41:56.494Z,11.30
2023-05-09T07:42:51.704Z,12.32
2023-05-09T07:43:43.184Z,11.83
2023-05-09T07:44:34.580Z,10.23
2023-05-09T07:45:26.090Z,9.75
2023-05-09T07:46:17.567Z,9.31
2023-05-09T07:47:09.373Z,9.35
2023-05-09T07:48:00.922Z,9.14
2023-05-09T07:48:52.422Z,9.01
2023-05-09T07:49:46.215Z,8.85
2023-05-09T07:50:45.116Z,8.65
2023-05-09T07:51:36.791Z,8.90
2023-05-09T07:52:28.207Z,10.01
2023-05-09T07:53:19.603Z,9.15
2023-05-09T07:54:11.208Z,8.80
2023-05-09T07:55:02.980Z,8.37
2023-05-09T07:55:55.998Z,7.79
2023-05-09T07:56:47.396Z,8.51
2023-05-09T07:57:39.785Z,8.58
2023-05-09T07:58:31.214Z,8.06
2023-05-09T07:59:24.156Z,8.01
2023-05-09T08:00:16.436Z,7.48
2023-05-09T08:01:07.886Z,7.48
2023-05-09T08:01:59.440Z,7.61
2023-05-09T08:02:51.862Z,7.75
2023-05-09T08:03:43.500Z,7.41
2023-05-09T08:04:38.331Z,7.06
2023-05-09T08:05:29.968Z,6.99
2023-05-09T08:06:21.795Z,7.05
2023-05-09T08:07:13.374Z,6.56
2023-05-09T08:08:07.827Z,7.05
2023-05-09T08:09:01.564Z,6.36
2023-05-09T08:09:55.632Z,6.47
2023-05-09T08:10:47.046Z,6.99
2023-05-09T08:11:38.575Z,6.80
2023-05-09T08:12:30.018Z,6.91
2023-05-09T08:13:22.387Z,6.74
2023-05-09T08:14:15.028Z,6.76
2023-05-09T08:15:07.606Z,6.74
2023-05-09T08:16:02.267Z,6.69
2023-05-09T08:16:54.222Z,6.47
2023-05-09T08:17:45.800Z,6.35
2023-05-09T08:18:37.332Z,7.14
2023-05-09T08:19:28.793Z,7.12
2023-05-09T08:20:21.530Z,7.41
2023-05-09T08:21:13.453Z,7.17
2023-05-09T08:22:04.922Z,6.51
2023-05-09T08:22:56.367Z,6.41
2023-05-09T08:23:48.034Z,6.77
2023-05-09T08:24:39.732Z,6.42
2023-05-09T08:25:33.864Z,6.14
2023-05-09T08:26:27.168Z,6.32
2023-05-09T08:27:18.620Z,6.62
2023-05-09T08:28:10.212Z,6.89
2023-05-09T08:29:01.978Z,6.92
2023-05-09T08:29:53.488Z,6.44
2023-05-09T08:30:44.946Z,5.72
2023-05-09T08:31:36.454Z,6.33
2023-05-09T08:32:29.988Z,6.02
2023-05-09T08:33:21.500Z,6.03
2023-05-09T08:34:12.971Z,5.96
2023-05-09T08:35:04.979Z,5.68
2023-05-09T08:35:56.595Z,5.20
2023-05-09T08:36:48.584Z,4.96
2023-05-09T08:37:44.805Z,5.33
2023-05-09T08:38:40.357Z,5.16
2023-05-09T08:39:34.850Z,5.29
2023-05-09T08:40:26.409Z,4.81
2023-05-09T08:41:19.716Z,5.26
2023-05-09T08:42:15.735Z,5.23
2023-05-09T08:43:07.858Z,5.29
2023-05-09T08:43:59.688Z,4.91
2023-05-09T08:44:51.138Z,4.24
2023-05-09T08:45:49.720Z,4.59
2023-05-09T08:46:47.785Z,4.65
2023-05-09T08:47:40.001Z,4.01
2023-05-09T08:48:35.990Z,4.33
2023-05-09T08:49:28.079Z,5.04
2023-05-09T08:50:20.962Z,4.91
2023-05-09T08:51:13.941Z,4.45
2023-05-09T08:52:06.111Z,4.45
2023-05-09T08:52:58.787Z,4.46
2023-05-09T08:53:52.216Z,4.23
2023-05-09T08:54:44.166Z,4.01
2023-05-09T08:55:36.024Z,3.94
2023-05-09T08:56:27.596Z,3.98
2023-05-09T08:57:19.340Z,3.87
2023-05-09T08:58:14.303Z,4.12
2023-05-09T08:59:06.559Z,4.39
2023-05-09T09:00:00.234Z,4.34
2023-05-09T09:00:53.746Z,4.10
2023-05-09T09:01:46.693Z,3.95
2023-05-09T09:02:43.781Z,3.86
2023-05-09T09:03:37.912Z,3.81
2023-05-09T09:04:29.799Z,3.87
2023-05-09T09:05:39.994Z,3.52
2023-05-09T09:06:34.838Z,3.12
2023-05-09T09:07:32.982Z,3.36
2023-05-09T09:08:27.899Z,3.76
2023-05-09T09:09:21.966Z,3.28
2023-05-09T09:10:13.784Z,2.99
2023-05-09T09:11:05.688Z,3.07
2023-05-09T09:11:58.026Z,3.08
2023-05-09T09:12:53.141Z,3.16
2023-05-09T09:13:47.515Z,2.96
2023-05-09T09:14:46.203Z,2.97
2023-05-09T09:15:40.531Z,2.64
2023-05-09T09:16:34.576Z,2.68
2023-05-09T09:17:30.397Z,3.15
2023-05-09T09:18:30.659Z,2.59
2023-05-09T09:19:27.794Z,2.87
2023-05-09T09:20:24.547Z,2.81
2023-05-09T09:21:19.418Z,2.78
2023-05-09T09:22:19.070Z,2.76
2023-05-09T09:23:17.221Z,2.72
2023-05-09T09:24:09.476Z,2.88
2023-05-09T09:25:01.995Z,2.78
2023-05-09T09:26:02.355Z,2.54
2023-05-09T09:26:56.902Z,2.78
2023-05-09T09:27:52.849Z,2.58
2023-05-09T09:28:44.578Z,2.63
2023-05-09T09:29:38.702Z,2.68
2023-05-09T09:30:30.516Z,2.85
2023-05-09T09:31:30.159Z,2.51
2023-05-09T09:32:32.833Z,2.35
2023-05-09T09:33:26.252Z,2.57
2023-05-09T09:34:22.772Z,2.77
2023-05-09T09:35:14.150Z,2.40
2023-05-09T09:36:08.267Z,2.43
2023-05-09T09:36:59.805Z,2.53
2023-05-09T09:37:59.867Z,2.58
2023-05-09T09:39:00.307Z,2.50
2023-05-09T09:39:56.212Z,2.62
2023-05-09T09:40:57.300Z,2.64
2023-05-09T09:41:48.877Z,2.82
2023-05-09T09:42:42.908Z,2.85
2023-05-09T09:43:34.356Z,3.12
2023-05-09T09:44:25.918Z,2.97
2023-05-09T09:45:20.182Z,3.19
2023-05-09T09:46:14.133Z,2.85
2023-05-09T09:47:12.784Z,2.88
2023-05-09T09:48:11.954Z,3.16
2023-05-09T09:49:03.494Z,3.38
2023-05-09T09:49:54.879Z,3.79
2023-05-09T09:50:48.612Z,3.71
2023-05-09T09:51:40.926Z,3.72
2023-05-09T09:52:32.427Z,4.19
2023-05-09T09:53:30.063Z,3.81
2023-05-09T09:54:22.189Z,3.76
2023-05-09T09:55:13.721Z,3.95
2023-05-09T09:56:05.504Z,3.78
2023-05-09T09:56:59.175Z,3.47
2023-05-09T09:57:51.723Z,3.89
2023-05-09T09:58:45.281Z,3.97
2023-05-09T09:59:36.782Z,4.00
2023-05-09T10:00:28.770Z,3.88
2023-05-09T10:01:20.815Z,3.91
2023-05-09T10:02:12.749Z,3.95
2023-05-09T10:03:04.334Z,4.06
2023-05-09T10:03:56.139Z,4.27
2023-05-09T10:04:47.960Z,4.43
2023-05-09T10:05:40.754Z,3.94
2023-05-09T10:06:32.813Z,3.91
2023-05-09T10:07:24.336Z,3.82
2023-05-09T10:08:17.351Z,3.89
2023-05-09T10:09:10.063Z,3.79
2023-05-09T10:10:05.874Z,3.62
2023-05-09T10:11:01.927Z,3.93
2023-05-09T10:11:55.064Z,3.86
2023-05-09T10:12:47.613Z,3.77
2023-05-09T10:13:39.300Z,3.42
2023-05-09T10:14:35.356Z,4.11
2023-05-09T10:15:35.594Z,3.55
2023-05-09T10:16:43.939Z,3.57
2023-05-09T10:17:36.756Z,3.35
2023-05-09T10:18:31.050Z,3.26
2023-05-09T10:19:26.286Z,3.18
2023-05-09T10:20:18.771Z,3.57
2023-05-09T10:21:14.589Z,3.72
2023-05-09T10:22:10.386Z,3.52
2023-05-09T10:23:03.919Z,3.53
2023-05-09T10:23:56.246Z,4.14
2023-05-09T10:25:15.746Z,3.67
2023-05-09T10:26:23.400Z,3.34
2023-05-09T10:27:21.604Z,3.39
2023-05-09T10:28:18.028Z,3.41
2023-05-09T10:29:15.847Z,3.67
2023-05-09T10:30:12.181Z,3.62
2023-05-09T10:31:09.600Z,4.04
2023-05-09T10:32:15.360Z,3.57
2023-05-09T10:33:14.208Z,3.97
2023-05-09T10:34:10.560Z,4.00
2023-05-09T10:35:06.859Z,4.09
2023-05-09T10:36:01.170Z,3.72
2023-05-09T10:36:53.810Z,3.66
2023-05-09T10:37:46.250Z,3.81
2023-05-09T10:38:44.072Z,4.44
2023-05-09T10:39:37.100Z,4.13
2023-05-09T10:40:30.023Z,3.72
2023-05-09T10:41:22.517Z,3.90
2023-05-09T10:42:14.335Z,4.27
2023-05-09T10:43:08.333Z,4.00
2023-05-09T10:44:00.391Z,3.73
2023-05-09T10:44:54.009Z,3.59
2023-05-09T10:45:55.816Z,3.70
2023-05-09T10:46:48.111Z,3.70
2023-05-09T10:47:41.586Z,3.53
2023-05-09T10:48:36.457Z,3.67
2023-05-09T10:49:28.535Z,3.93
2023-05-09T10:50:21.603Z,3.73
2023-05-09T10:51:13.848Z,4.23
2023-05-09T10:52:05.299Z,3.76
2023-05-09T10:53:08.750Z,3.60
2023-05-09T10:54:00.300Z,3.36
2023-05-09T10:55:01.451Z,3.58
2023-05-09T10:55:56.422Z,3.84
2023-05-09T10:56:47.806Z,3.76
2023-05-09T10:57:39.519Z,3.36
2023-05-09T10:58:33.528Z,3.43
2023-05-09T10:59:42.850Z,3.33
2023-05-09T11:00:34.596Z,3.27
2023-05-09T11:01:38.784Z,3.25
2023-05-09T11:02:32.421Z,3.28
2023-05-09T11:03:25.947Z,3.29
2023-05-09T11:04:17.517Z,3.14
2023-05-09T11:05:20.129Z,3.25
2023-05-09T11:06:51.516Z,3.19
2023-05-09T11:07:43.554Z,3.23
2023-05-09T11:08:35.334Z,3.22
2023-05-09T11:09:36.371Z,3.15
2023-05-09T11:10:42.524Z,3.29
2023-05-09T11:11:34.232Z,3.38
2023-05-09T11:12:25.785Z,3.20
2023-05-09T11:13:23.828Z,3.13
2023-05-09T11:14:43.088Z,3.08
2023-05-09T11:15:51.873Z,3.57
2023-05-09T11:17:00.857Z,3.21
2023-05-09T11:18:07.852Z,3.51
2023-05-09T11:18:59.580Z,3.10
2023-05-09T11:19:51.228Z,3.12
2023-05-09T11:20:46.163Z,3.41
2023-05-09T11:21:37.776Z,3.13
2023-05-09T11:22:33.004Z,3.08
2023-05-09T11:23:31.264Z,3.44
2023-05-09T11:24:23.169Z,3.41
2023-05-09T11:25:16.545Z,3.20
2023-05-09T11:26:09.274Z,3.33
2023-05-09T11:27:01.367Z,3.34
2023-05-09T11:27:59.090Z,3.62
2023-05-09T11:28:56.030Z,3.31
2023-05-09T11:29:59.261Z,3.08
2023-05-09T11:30:54.871Z,3.27
2023-05-09T11:32:06.750Z,3.67
2023-05-09T11:32:59.108Z,3.61
2023-05-09T11:33:56.247Z,3.38
2023-05-09T11:34:49.220Z,3.52
2023-05-09T11:35:43.940Z,3.68
2023-05-09T11:36:36.820Z,3.54
2023-05-09T11:37:33.282Z,3.72
2023-05-09T11:38:26.742Z,3.68
2023-05-09T11:39:25.278Z,3.52
2023-05-09T11:40:20.297Z,3.56
2023-05-09T11:41:11.915Z,3.69
2023-05-09T11:42:04.708Z,3.67
2023-05-09T11:42:58.840Z,3.63
2023-05-09T11:43:51.654Z,3.77
2023-05-09T11:44:43.233Z,3.75
2023-05-09T11:45:41.508Z,3.48
2023-05-09T11:46:35.147Z,3.60